Time;durP1;ratioP1;P1;durP2;ratioP2;P2;SDS_P1;SDS_P2;PMS_P1;PMS_P2;Temp;Humidity;BMP_temperature;BMP_pressure;BME280_temperature;BME280_humidity;BME280_pressure;Samples;Min_cycle;Max_cycle;Signal;HPM_P1;HPM_P2
2021/07/28 00:01:29;;;;;;;5.25;4.75;;;;;;;;;;5073165;28;20013;-60
2021/07/28 00:03:54;;;;;;;4.70;4.30;;;;;;;;;;5068933;28;20490;-60
2021/07/28 00:06:20;;;;;;;5.15;4.30;;;;;;;;;;5068214;28;20410;-60
2021/07/28 00:08:45;;;;;;;4.68;4.28;;;;;;;;;;5073271;28;20368;-61
2021/07/28 00:11:11;;;;;;;7.65;4.78;;;;;;;;;;5072827;28;20020;-60
2021/07/28 00:13:36;;;;;;;5.43;4.60;;;;;;;;;;5069611;28;20081;-60
2021/07/28 00:16:01;;;;;;;4.63;4.22;;;;;;;;;;5073089;28;20020;-60
2021/07/28 00:18:41;;;;;;;5.38;4.60;;;;;;;;;;5073041;28;20044;-60
2021/07/28 00:23:50;;;;;;;5.25;4.75;;;;;;;;;;5066993;28;20032;-61
2021/07/28 00:26:15;;;;;;;5.30;4.85;;;;;;;;;;5072826;28;20012;-61
2021/07/28 00:28:40;;;;;;;6.70;5.25;;;;;;;;;;5072495;28;20402;-61
2021/07/28 00:31:05;;;;;;;4.78;4.38;;;;;;;;;;5072510;28;20082;-61
2021/07/28 00:33:31;;;;;;;8.02;4.78;;;;;;;;;;5068816;28;20047;-61
2021/07/28 00:35:56;;;;;;;5.45;4.47;;;;;;;;;;5053675;28;20383;-61
2021/07/28 00:38:21;;;;;;;5.65;4.75;;;;;;;;;;5052584;28;20060;-61
2021/07/28 00:40:46;;;;;;;6.60;4.68;;;;;;;;;;5052522;28;20100;-61
2021/07/28 00:43:12;;;;;;;5.57;4.72;;;;;;;;;;5063770;28;20028;-61
2021/07/28 00:45:39;;;;;;;4.57;4.28;;;;;;;;;;5071618;28;20044;-61
2021/07/28 00:48:04;;;;;;;4.88;4.30;;;;;;;;;;5070368;28;20423;-61
2021/07/28 00:50:30;;;;;;;5.10;4.50;;;;;;;;;;5052371;28;20104;-61
2021/07/28 00:52:58;;;;;;;5.57;4.78;;;;;;;;;;5065007;28;20027;-61
2021/07/28 00:55:24;;;;;;;5.20;4.78;;;;;;;;;;5069707;28;20028;-61
2021/07/28 00:57:49;;;;;;;5.07;4.57;;;;;;;;;;5071942;28;20060;-61
2021/07/28 01:00:14;;;;;;;4.95;4.55;;;;;;;;;;5072211;28;20025;-61
2021/07/28 01:02:39;;;;;;;5.18;4.72;;;;;;;;;;5071543;28;20020;-61
2021/07/28 01:05:05;;;;;;;5.78;4.53;;;;;;;;;;5068409;28;20017;-61
2021/07/28 01:07:31;;;;;;;4.55;4.20;;;;;;;;;;5072447;28;20020;-61
2021/07/28 01:09:56;;;;;;;5.82;4.93;;;;;;;;;;5072361;28;20013;-60
2021/07/28 01:12:24;;;;;;;4.90;4.40;;;;;;;;;;5071736;28;20020;-60
2021/07/28 01:14:51;;;;;;;5.32;4.15;;;;;;;;;;5069218;28;20017;-60
2021/07/28 01:17:16;;;;;;;4.85;4.47;;;;;;;;;;5072131;28;20017;-61
2021/07/28 01:19:44;;;;;;;5.18;4.70;;;;;;;;;;5052163;28;20040;-61
2021/07/28 01:22:10;;;;;;;5.30;4.43;;;;;;;;;;5053977;28;20021;-61
2021/07/28 01:24:35;;;;;;;5.13;4.43;;;;;;;;;;5069188;28;20016;-61
2021/07/28 01:27:01;;;;;;;5.43;4.40;;;;;;;;;;5072231;28;20024;-61
2021/07/28 01:29:27;;;;;;;5.10;4.60;;;;;;;;;;5071541;28;20455;-61
2021/07/28 01:31:54;;;;;;;4.63;4.30;;;;;;;;;;5071891;28;20035;-61
2021/07/28 01:34:19;;;;;;;7.50;6.80;;;;;;;;;;5068162;28;20035;-61
2021/07/28 01:36:48;;;;;;;4.88;4.40;;;;;;;;;;5058201;28;20029;-61
2021/07/28 01:39:13;;;;;;;4.65;4.25;;;;;;;;;;5052121;28;20032;-61
2021/07/28 01:41:38;;;;;;;4.63;4.15;;;;;;;;;;5051925;28;20021;-61
2021/07/28 01:44:03;;;;;;;4.95;4.55;;;;;;;;;;5066703;28;20016;-61
2021/07/28 01:46:29;;;;;;;5.22;4.72;;;;;;;;;;5072088;28;20017;-61
2021/07/28 01:48:54;;;;;;;4.22;3.85;;;;;;;;;;5054672;28;20115;-61
2021/07/28 01:51:19;;;;;;;4.13;3.50;;;;;;;;;;5052672;28;20048;-61
2021/07/28 01:53:44;;;;;;;6.85;5.57;;;;;;;;;;5068702;28;20070;-61
2021/07/28 01:56:10;;;;;;;3.20;2.90;;;;;;;;;;5071562;28;20066;-61
2021/07/28 01:58:38;;;;;;;6.05;4.80;;;;;;;;;;5071586;28;20501;-60
2021/07/28 02:01:04;;;;;;;5.55;4.97;;;;;;;;;;5071708;28;20017;-61
2021/07/28 02:03:29;;;;;;;5.72;4.75;;;;;;;;;;5068352;28;20422;-61
2021/07/28 02:05:54;;;;;;;5.88;5.28;;;;;;;;;;5071449;28;20141;-61
2021/07/28 02:08:19;;;;;;;4.78;4.30;;;;;;;;;;5071665;28;20111;-61
2021/07/28 02:10:49;;;;;;;6.35;5.40;;;;;;;;;;5071629;28;20387;-60
2021/07/28 02:13:15;;;;;;;6.55;5.95;;;;;;;;;;5069461;28;20056;-61
2021/07/28 02:15:41;;;;;;;8.52;7.10;;;;;;;;;;5071048;28;20065;-61
2021/07/28 02:18:06;;;;;;;8.27;7.50;;;;;;;;;;5059109;28;20116;-61
2021/07/28 02:20:32;;;;;;;8.45;7.65;;;;;;;;;;5055078;28;20070;-61
2021/07/28 02:22:57;;;;;;;9.35;7.95;;;;;;;;;;5063586;28;20540;-61
2021/07/28 02:25:23;;;;;;;10.18;9.18;;;;;;;;;;5072207;28;20114;-60
2021/07/28 02:27:48;;;;;;;9.70;8.40;;;;;;;;;;5074791;28;20024;-60
2021/07/28 02:30:14;;;;;;;10.80;8.48;;;;;;;;;;5074861;28;20471;-61
2021/07/28 02:32:40;;;;;;;10.15;9.10;;;;;;;;;;5065940;28;20020;-61
2021/07/28 02:35:05;;;;;;;9.15;8.13;;;;;;;;;;5071725;28;20025;-60
2021/07/28 02:37:31;;;;;;;10.18;8.90;;;;;;;;;;5075020;28;20475;-61
2021/07/28 02:39:57;;;;;;;10.20;8.80;;;;;;;;;;5074877;28;20421;-60
2021/07/28 02:42:22;;;;;;;11.30;10.18;;;;;;;;;;5074529;28;20060;-61
2021/07/28 02:44:47;;;;;;;11.02;9.93;;;;;;;;;;5071950;28;20009;-60
2021/07/28 02:47:12;;;;;;;11.48;10.15;;;;;;;;;;5063400;28;20071;-61
2021/07/28 02:49:38;;;;;;;11.05;10.05;;;;;;;;;;5054493;28;20021;-60
2021/07/28 02:52:03;;;;;;;10.23;9.18;;;;;;;;;;5054372;28;20018;-60
2021/07/28 02:54:29;;;;;;;11.00;9.90;;;;;;;;;;5053932;28;20084;-61
2021/07/28 02:56:54;;;;;;;12.45;10.65;;;;;;;;;;5074491;28;20098;-60
2021/07/28 02:59:19;;;;;;;11.93;10.82;;;;;;;;;;5074341;28;20024;-60
2021/07/28 03:01:45;;;;;;;12.23;10.93;;;;;;;;;;5064503;28;20142;-60
2021/07/28 03:04:10;;;;;;;11.82;10.73;;;;;;;;;;5064649;28;20069;-61
2021/07/28 03:06:35;;;;;;;13.27;11.23;;;;;;;;;;5074386;28;20097;-61
2021/07/28 03:09:00;;;;;;;11.20;10.10;;;;;;;;;;5074430;28;20025;-60
2021/07/28 03:11:25;;;;;;;14.10;12.47;;;;;;;;;;5074250;28;20024;-60
2021/07/28 03:13:51;;;;;;;14.82;13.05;;;;;;;;;;5070665;28;20271;-60
2021/07/28 03:16:16;;;;;;;13.40;12.00;;;;;;;;;;5072761;28;20052;-60
2021/07/28 03:18:41;;;;;;;13.73;11.65;;;;;;;;;;5074211;28;20020;-61
2021/07/28 03:21:07;;;;;;;13.57;12.15;;;;;;;;;;5073820;28;20035;-61
2021/07/28 03:23:32;;;;;;;13.20;11.80;;;;;;;;;;5070927;28;20111;-60
2021/07/28 03:25:57;;;;;;;12.85;10.75;;;;;;;;;;5074218;28;20020;-60
2021/07/28 03:28:22;;;;;;;15.13;12.65;;;;;;;;;;5072690;28;20444;-60
2021/07/28 03:30:49;;;;;;;15.40;13.25;;;;;;;;;;5073324;28;20044;-60
2021/07/28 03:33:14;;;;;;;15.98;14.32;;;;;;;;;;5071954;28;20048;-60
2021/07/28 03:35:40;;;;;;;13.80;12.43;;;;;;;;;;5073287;28;20059;-60
2021/07/28 03:38:05;;;;;;;15.50;13.90;;;;;;;;;;5071675;28;20466;-60
2021/07/28 03:40:30;;;;;;;14.35;12.85;;;;;;;;;;5071593;28;20020;-61
2021/07/28 03:42:55;;;;;;;12.88;11.57;;;;;;;;;;5057383;28;20012;-61
2021/07/28 03:45:21;;;;;;;16.88;12.48;;;;;;;;;;5050743;28;20391;-61
2021/07/28 03:47:46;;;;;;;13.43;12.02;;;;;;;;;;5053721;28;20413;-60
2021/07/28 03:50:11;;;;;;;13.05;11.10;;;;;;;;;;5066324;28;20034;-60
2021/07/28 03:52:36;;;;;;;13.68;12.32;;;;;;;;;;5073826;28;20092;-61
2021/07/28 03:55:02;;;;;;;12.73;11.43;;;;;;;;;;5070145;28;20145;-59
2021/07/28 03:57:27;;;;;;;12.32;10.95;;;;;;;;;;5053346;28;20127;-61
2021/07/28 03:59:52;;;;;;;13.57;12.13;;;;;;;;;;5053369;28;19916;-60
2021/07/28 04:02:17;;;;;;;12.98;11.68;;;;;;;;;;5065457;28;20013;-60
2021/07/28 04:04:42;;;;;;;13.75;12.38;;;;;;;;;;5070187;28;20017;-60
2021/07/28 04:07:08;;;;;;;11.70;10.52;;;;;;;;;;5063123;28;20094;-60
2021/07/28 04:09:33;;;;;;;11.85;10.75;;;;;;;;;;5053158;28;20425;-60
2021/07/28 04:11:58;;;;;;;12.85;11.63;;;;;;;;;;5053223;28;20111;-60
2021/07/28 04:14:23;;;;;;;12.00;10.85;;;;;;;;;;5062059;28;20038;-61
2021/07/28 04:16:49;;;;;;;11.93;10.75;;;;;;;;;;5070579;28;20206;-60
2021/07/28 04:19:14;;;;;;;13.38;11.98;;;;;;;;;;5072623;28;20017;-60
2021/07/28 04:21:39;;;;;;;13.48;11.95;;;;;;;;;;5072162;28;20021;-60
2021/07/28 04:24:04;;;;;;;15.25;13.75;;;;;;;;;;5069827;28;20020;-60
2021/07/28 04:26:30;;;;;;;15.25;13.70;;;;;;;;;;5061863;28;20104;-61
2021/07/28 04:28:55;;;;;;;12.38;11.02;;;;;;;;;;5065220;28;20460;-61
2021/07/28 04:31:20;;;;;;;14.00;12.52;;;;;;;;;;5072486;28;20024;-61
2021/07/28 04:33:45;;;;;;;14.35;12.85;;;;;;;;;;5069786;28;20028;-60
2021/07/28 04:36:10;;;;;;;13.32;12.02;;;;;;;;;;5071937;28;20032;-60
2021/07/28 04:38:36;;;;;;;13.40;11.93;;;;;;;;;;5066924;28;20031;-60
2021/07/28 04:41:01;;;;;;;13.13;11.98;;;;;;;;;;5060076;28;20025;-59
2021/07/28 04:43:26;;;;;;;13.80;12.32;;;;;;;;;;5049472;28;20009;-60
2021/07/28 04:46:01;;;;;;;13.63;12.13;;;;;;;;;;5052604;28;20096;-60
2021/07/28 04:48:27;;;;;;;13.77;11.73;;;;;;;;;;5061329;28;20035;-60
2021/07/28 04:50:52;;;;;;;13.25;11.95;;;;;;;;;;5062490;28;20028;-60
2021/07/28 04:53:18;;;;;;;13.13;11.80;;;;;;;;;;5070331;28;20016;-61
2021/07/28 04:55:43;;;;;;;13.98;10.70;;;;;;;;;;5071247;28;20052;-61
2021/07/28 04:58:08;;;;;;;11.37;10.27;;;;;;;;;;5072120;28;20464;-60
2021/07/28 05:00:34;;;;;;;11.95;10.75;;;;;;;;;;5072452;28;20287;-60
2021/07/28 05:02:59;;;;;;;10.40;9.40;;;;;;;;;;5071724;28;20024;-61
2021/07/28 05:05:25;;;;;;;11.77;10.57;;;;;;;;;;5069023;28;20283;-61
2021/07/28 05:07:50;;;;;;;12.00;10.88;;;;;;;;;;5072168;28;20291;-61
2021/07/28 05:10:15;;;;;;;10.98;9.80;;;;;;;;;;5071632;28;20379;-60
2021/07/28 05:12:40;;;;;;;13.02;10.90;;;;;;;;;;5072026;28;20491;-61
2021/07/28 05:15:06;;;;;;;11.82;10.63;;;;;;;;;;5069004;28;20012;-60
2021/07/28 05:17:31;;;;;;;12.23;10.68;;;;;;;;;;5071232;28;20474;-60
2021/07/28 05:19:56;;;;;;;11.63;10.52;;;;;;;;;;5071240;28;20070;-60
2021/07/28 05:22:22;;;;;;;11.48;10.48;;;;;;;;;;5072143;28;20027;-60
2021/07/28 05:24:47;;;;;;;12.18;10.88;;;;;;;;;;5069071;28;20024;-59
2021/07/28 05:27:13;;;;;;;12.50;11.27;;;;;;;;;;5071842;28;20067;-59
2021/07/28 05:29:38;;;;;;;13.50;12.15;;;;;;;;;;5071580;28;20028;-60
2021/07/28 05:32:03;;;;;;;13.80;12.25;;;;;;;;;;5071392;28;20495;-61
2021/07/28 05:34:29;;;;;;;11.98;10.70;;;;;;;;;;5068948;28;20058;-60
2021/07/28 05:36:57;;;;;;;15.75;12.07;;;;;;;;;;5071827;28;20029;-60
2021/07/28 05:39:22;;;;;;;12.73;11.40;;;;;;;;;;5071564;28;20532;-59
2021/07/28 05:41:47;;;;;;;12.85;11.55;;;;;;;;;;5071921;28;20052;-60
2021/07/28 05:44:13;;;;;;;15.18;11.63;;;;;;;;;;5068331;28;20040;-60
2021/07/28 05:46:38;;;;;;;12.45;11.05;;;;;;;;;;5068678;28;20052;-61
2021/07/28 05:49:03;;;;;;;13.43;12.02;;;;;;;;;;5071610;28;20048;-63
2021/07/28 05:51:28;;;;;;;12.73;10.35;;;;;;;;;;5073145;28;20024;-61
2021/07/28 05:53:54;;;;;;;12.55;10.43;;;;;;;;;;5072642;28;20504;-61
2021/07/28 05:56:19;;;;;;;11.53;10.03;;;;;;;;;;5075043;28;20530;-60
2021/07/28 05:58:44;;;;;;;13.15;11.70;;;;;;;;;;5075136;28;20300;-60
2021/07/28 06:01:09;;;;;;;11.30;9.95;;;;;;;;;;5074529;28;20029;-60
2021/07/28 06:03:34;;;;;;;12.77;9.87;;;;;;;;;;5072498;28;20103;-61
2021/07/28 06:06:00;;;;;;;10.82;9.75;;;;;;;;;;5075467;28;20258;-61
2021/07/28 06:08:25;;;;;;;9.40;8.38;;;;;;;;;;5075467;28;20042;-61
2021/07/28 06:10:50;;;;;;;8.93;8.10;;;;;;;;;;5075183;28;20822;-61
2021/07/28 06:13:15;;;;;;;9.32;8.43;;;;;;;;;;5062699;28;20108;-61
2021/07/28 06:15:41;;;;;;;10.05;8.27;;;;;;;;;;5054603;28;20043;-61
2021/07/28 06:18:06;;;;;;;8.43;7.63;;;;;;;;;;5058472;28;20017;-61
2021/07/28 06:20:31;;;;;;;10.15;8.50;;;;;;;;;;5074968;28;20126;-61
2021/07/28 06:22:56;;;;;;;10.38;7.43;;;;;;;;;;5075246;28;20021;-61
2021/07/28 06:25:21;;;;;;;9.05;8.10;;;;;;;;;;5071995;28;20020;-61
2021/07/28 06:27:49;;;;;;;9.27;8.10;;;;;;;;;;5073018;28;20087;-61
2021/07/28 06:30:15;;;;;;;10.00;8.10;;;;;;;;;;5074676;28;20100;-61
2021/07/28 06:32:40;;;;;;;9.48;7.90;;;;;;;;;;5075040;28;20427;-60
2021/07/28 06:35:06;;;;;;;8.65;7.85;;;;;;;;;;5071157;28;20017;-60
2021/07/28 06:37:31;;;;;;;9.30;7.88;;;;;;;;;;5073520;28;20032;-61
2021/07/28 06:39:56;;;;;;;9.38;7.97;;;;;;;;;;5063741;28;20024;-61
2021/07/28 06:42:21;;;;;;;8.73;7.82;;;;;;;;;;5064257;28;20025;-62
2021/07/28 06:44:48;;;;;;;9.83;7.83;;;;;;;;;;5051729;28;20021;-62
2021/07/28 06:47:13;;;;;;;8.82;7.90;;;;;;;;;;5054266;28;20248;-62
2021/07/28 06:49:38;;;;;;;9.93;8.52;;;;;;;;;;5071707;28;20532;-62
2021/07/28 06:52:03;;;;;;;8.30;7.38;;;;;;;;;;5064488;28;20090;-62
2021/07/28 06:54:29;;;;;;;10.65;9.25;;;;;;;;;;5054660;28;20036;-61
2021/07/28 06:56:54;;;;;;;8.20;7.40;;;;;;;;;;5074226;28;20048;-61
2021/07/28 06:59:19;;;;;;;8.50;7.63;;;;;;;;;;5074258;28;20215;-61
2021/07/28 07:01:45;;;;;;;8.17;7.23;;;;;;;;;;5074268;28;20020;-61
2021/07/28 07:04:10;;;;;;;9.15;7.30;;;;;;;;;;5070645;28;20266;-60
2021/07/28 07:06:35;;;;;;;9.27;7.32;;;;;;;;;;5073531;28;20056;-60
2021/07/28 07:09:00;;;;;;;8.10;6.63;;;;;;;;;;5074279;28;20056;-61
2021/07/28 07:11:26;;;;;;;8.45;7.75;;;;;;;;;;5073193;28;20471;-60
2021/07/28 07:13:51;;;;;;;7.57;6.72;;;;;;;;;;5071047;28;20070;-60
2021/07/28 07:16:16;;;;;;;7.72;6.38;;;;;;;;;;5073806;28;20054;-60
2021/07/28 07:18:41;;;;;;;7.63;6.80;;;;;;;;;;5073888;28;20457;-60
2021/07/28 07:21:06;;;;;;;7.60;6.50;;;;;;;;;;5074019;28;20095;-60
2021/07/28 07:23:32;;;;;;;8.32;7.28;;;;;;;;;;5066477;28;20426;-61
2021/07/28 07:25:58;;;;;;;6.70;6.07;;;;;;;;;;5055198;28;20017;-60
2021/07/28 07:28:24;;;;;;;6.72;5.90;;;;;;;;;;5069190;28;20483;-60
2021/07/28 07:30:50;;;;;;;7.03;5.60;;;;;;;;;;5060572;28;20036;-60
2021/07/28 07:35:59;;;;;;;6.55;5.97;;;;;;;;;;5053903;28;20028;-61
2021/07/28 07:38:24;;;;;;;6.10;5.50;;;;;;;;;;5058872;28;20028;-60
2021/07/28 07:40:50;;;;;;;4.97;4.57;;;;;;;;;;5072796;28;20504;-60
2021/07/28 07:43:15;;;;;;;5.10;4.60;;;;;;;;;;5051573;28;20095;-61
2021/07/28 07:45:40;;;;;;;6.90;4.43;;;;;;;;;;5055728;28;20253;-61
2021/07/28 07:48:05;;;;;;;4.80;4.40;;;;;;;;;;5073400;28;20032;-61
2021/07/28 07:50:35;;;;;;;4.60;3.92;;;;;;;;;;5072844;28;20494;-61
2021/07/28 07:53:00;;;;;;;3.78;3.47;;;;;;;;;;5069074;28;20025;-61
2021/07/28 07:55:25;;;;;;;4.28;3.42;;;;;;;;;;5051522;28;20035;-60
2021/07/28 07:57:51;;;;;;;4.30;3.90;;;;;;;;;;5072377;28;20055;-60
2021/07/28 08:00:16;;;;;;;4.67;3.97;;;;;;;;;;5072899;28;20286;-60
2021/07/28 08:02:41;;;;;;;3.88;3.45;;;;;;;;;;5072322;28;20749;-60
2021/07/28 08:05:07;;;;;;;4.90;3.40;;;;;;;;;;5069620;28;20016;-61
2021/07/28 08:07:32;;;;;;;3.50;2.90;;;;;;;;;;5070227;28;20059;-61
2021/07/28 08:09:57;;;;;;;3.45;3.15;;;;;;;;;;5053185;28;20071;-60
2021/07/28 08:12:22;;;;;;;4.50;3.38;;;;;;;;;;5067418;28;20028;-61
2021/07/28 08:14:48;;;;;;;2.97;2.78;;;;;;;;;;5069142;28;20021;-61
2021/07/28 08:17:15;;;;;;;3.30;3.00;;;;;;;;;;5073152;28;20025;-61
2021/07/28 08:19:40;;;;;;;2.70;2.50;;;;;;;;;;5071673;28;20024;-61
2021/07/28 08:22:05;;;;;;;3.13;2.90;;;;;;;;;;5068647;28;20528;-61
2021/07/28 08:24:30;;;;;;;4.88;3.00;;;;;;;;;;5069946;28;20263;-61
2021/07/28 08:26:56;;;;;;;2.30;2.10;;;;;;;;;;5073106;28;20039;-61
2021/07/28 08:29:21;;;;;;;2.40;2.30;;;;;;;;;;5071901;28;20476;-61
2021/07/28 08:31:46;;;;;;;3.13;2.72;;;;;;;;;;5072696;28;20523;-61
2021/07/28 08:34:11;;;;;;;3.20;2.60;;;;;;;;;;5068958;28;20021;-61
2021/07/28 08:36:37;;;;;;;4.57;2.75;;;;;;;;;;5062936;28;20278;-61
2021/07/28 08:39:02;;;;;;;2.97;2.60;;;;;;;;;;5052354;28;20029;-61
2021/07/28 08:41:28;;;;;;;3.28;2.97;;;;;;;;;;5070436;28;20100;-62
2021/07/28 08:43:55;;;;;;;2.60;2.33;;;;;;;;;;5069510;28;20035;-61
2021/07/28 08:46:23;;;;;;;2.95;2.70;;;;;;;;;;5071730;28;20043;-62
2021/07/28 08:48:49;;;;;;;3.95;2.00;;;;;;;;;;5072301;28;20030;-62
2021/07/28 08:51:16;;;;;;;2.88;2.58;;;;;;;;;;5071967;28;20546;-61
2021/07/28 08:53:41;;;;;;;3.03;2.50;;;;;;;;;;5069090;28;20095;-61
2021/07/28 08:56:07;;;;;;;2.80;2.50;;;;;;;;;;5071662;28;20119;-62
2021/07/28 08:58:32;;;;;;;3.80;2.85;;;;;;;;;;5071957;28;20092;-62
2021/07/28 09:00:57;;;;;;;2.88;2.40;;;;;;;;;;5071907;28;20020;-61
2021/07/28 09:03:23;;;;;;;2.50;2.30;;;;;;;;;;5066299;28;20120;-61
2021/07/28 09:05:49;;;;;;;2.80;2.60;;;;;;;;;;5070120;28;20017;-61
2021/07/28 09:08:27;;;;;;;2.33;2.15;;;;;;;;;;5072135;28;20501;-60
2021/07/28 09:10:56;;;;;;;3.15;2.72;;;;;;;;;;5069341;28;20020;-60
2021/07/28 09:13:25;;;;;;;3.80;3.50;;;;;;;;;;5062587;28;20078;-60
2021/07/28 09:15:50;;;;;;;3.50;3.20;;;;;;;;;;5072324;28;20406;-60
2021/07/28 09:18:30;;;;;;;3.63;3.13;;;;;;;;;;5071399;28;20111;-60
2021/07/28 09:20:55;;;;;;;3.53;2.65;;;;;;;;;;5071562;28;20471;-60
2021/07/28 09:23:21;;;;;;;2.80;2.60;;;;;;;;;;5050643;28;20381;-61
2021/07/28 09:25:52;;;;;;;3.75;2.88;;;;;;;;;;5065601;28;20078;-61
2021/07/28 09:28:19;;;;;;;3.83;3.38;;;;;;;;;;5075410;28;20028;-61
2021/07/28 09:30:44;;;;;;;3.22;3.00;;;;;;;;;;5075871;28;20052;-61
2021/07/28 09:33:10;;;;;;;3.15;2.92;;;;;;;;;;5074849;28;20067;-61
2021/07/28 09:35:42;;;;;;;3.35;2.80;;;;;;;;;;5074399;28;20021;-61
2021/07/28 09:38:07;;;;;;;2.80;2.60;;;;;;;;;;5076097;28;20017;-61
2021/07/28 09:40:32;;;;;;;2.80;2.33;;;;;;;;;;5063123;28;20096;-61
2021/07/28 09:43:04;;;;;;;5.30;2.80;;;;;;;;;;5055706;28;20055;-61
2021/07/28 09:45:29;;;;;;;3.17;2.60;;;;;;;;;;5053196;28;20029;-61
2021/07/28 09:47:54;;;;;;;2.40;2.17;;;;;;;;;;5055699;28;20024;-61
2021/07/28 09:50:19;;;;;;;2.22;2.13;;;;;;;;;;5066592;28;20708;-61
2021/07/28 09:52:45;;;;;;;2.33;2.03;;;;;;;;;;5075307;28;20095;-61
2021/07/28 09:55:20;;;;;;;2.53;2.33;;;;;;;;;;5061429;28;20267;-61
2021/07/28 09:57:46;;;;;;;2.67;1.48;;;;;;;;;;5055092;28;20125;-60
2021/07/28 10:00:11;;;;;;;2.20;2.00;;;;;;;;;;5055464;28;20096;-62
2021/07/28 10:02:37;;;;;;;3.13;2.75;;;;;;;;;;5055747;28;20036;-62
2021/07/28 10:05:03;;;;;;;3.22;2.92;;;;;;;;;;5067719;28;20025;-62
2021/07/28 10:07:33;;;;;;;3.08;2.70;;;;;;;;;;5075020;28;20031;-62
2021/07/28 10:10:03;;;;;;;3.17;2.50;;;;;;;;;;5063999;28;20021;-62
2021/07/28 10:12:28;;;;;;;2.67;2.47;;;;;;;;;;5055426;28;20021;-62
2021/07/28 10:14:54;;;;;;;3.65;2.30;;;;;;;;;;5065993;28;20360;-62
2021/07/28 10:17:20;;;;;;;2.25;2.15;;;;;;;;;;5075167;28;20024;-62
2021/07/28 10:19:48;;;;;;;2.00;1.48;;;;;;;;;;5075003;28;20028;-62
2021/07/28 10:22:13;;;;;;;2.20;1.85;;;;;;;;;;5074959;28;20021;-62
2021/07/28 10:24:38;;;;;;;2.00;1.90;;;;;;;;;;5070236;28;20082;-62
2021/07/28 10:27:04;;;;;;;2.47;2.07;;;;;;;;;;5074117;28;20030;-62
2021/07/28 10:29:30;;;;;;;2.30;2.20;;;;;;;;;;5074548;28;20273;-62
2021/07/28 10:31:56;;;;;;;2.40;2.20;;;;;;;;;;5074881;28;20009;-62
2021/07/28 10:34:22;;;;;;;1.83;1.67;;;;;;;;;;5072007;28;20027;-62
2021/07/28 10:36:48;;;;;;;2.97;2.25;;;;;;;;;;5074755;28;20058;-61
2021/07/28 10:39:32;;;;;;;1.58;0.95;;;;;;;;;;5073079;28;20025;-61
2021/07/28 10:41:58;;;;;;;2.05;1.88;;;;;;;;;;5075112;28;20028;-61
2021/07/28 10:44:23;;;;;;;3.30;1.70;;;;;;;;;;5071267;28;20024;-62
2021/07/28 10:46:54;;;;;;;2.85;1.95;;;;;;;;;;5066085;28;20256;-62
2021/07/28 10:49:35;;;;;;;1.85;1.40;;;;;;;;;;5054499;28;20017;-62
2021/07/28 10:52:00;;;;;;;1.73;1.30;;;;;;;;;;5054561;28;20017;-62
2021/07/28 10:54:44;;;;;;;2.28;1.92;;;;;;;;;;5065007;28;20074;-61
2021/07/28 10:57:29;;;;;;;2.08;1.98;;;;;;;;;;5073918;28;20114;-61
2021/07/28 10:59:54;;;;;;;2.60;1.38;;;;;;;;;;5073491;28;20056;-62
2021/07/28 11:02:20;;;;;;;24.87;2.87;;;;;;;;;;5073948;28;20052;-62
2021/07/28 11:04:45;;;;;;;2.10;1.87;;;;;;;;;;5071218;28;20338;-62
2021/07/28 11:07:10;;;;;;;2.53;2.20;;;;;;;;;;5074169;28;20334;-62
2021/07/28 11:09:36;;;;;;;4.05;2.13;;;;;;;;;;5073220;28;20362;-62
2021/07/28 11:12:01;;;;;;;1.50;1.40;;;;;;;;;;5073838;28;20024;-61
2021/07/28 11:14:28;;;;;;;1.95;1.30;;;;;;;;;;5071070;28;20021;-61
2021/07/28 11:16:54;;;;;;;2.30;2.08;;;;;;;;;;5074255;28;20478;-62
2021/07/28 11:19:20;;;;;;;2.30;1.92;;;;;;;;;;5073835;28;20106;-61
2021/07/28 11:21:46;;;;;;;2.10;1.40;;;;;;;;;;5073673;28;20127;-61
2021/07/28 11:24:11;;;;;;;2.40;2.17;;;;;;;;;;5055743;28;20115;-61
2021/07/28 11:26:37;;;;;;;2.13;1.63;;;;;;;;;;5054207;28;20017;-60
2021/07/28 11:29:05;;;;;;;2.40;1.95;;;;;;;;;;5053498;28;20803;-61
2021/07/28 11:31:35;;;;;;;2.80;2.28;;;;;;;;;;5072725;28;20036;-61
2021/07/28 11:34:04;;;;;;;2.05;1.95;;;;;;;;;;5071003;28;20119;-62
2021/07/28 11:36:29;;;;;;;2.67;1.67;;;;;;;;;;5074122;28;20029;-61
2021/07/28 11:38:54;;;;;;;2.13;2.00;;;;;;;;;;5058592;28;20613;-61
2021/07/28 11:41:23;;;;;;;2.45;2.05;;;;;;;;;;5053382;28;20569;-61
2021/07/28 11:43:48;;;;;;;3.63;2.22;;;;;;;;;;5063381;28;20016;-61
2021/07/28 11:46:17;;;;;;;2.28;2.08;;;;;;;;;;5073582;28;20586;-61
2021/07/28 11:48:47;;;;;;;2.20;2.00;;;;;;;;;;5073368;28;20048;-61
2021/07/28 11:51:28;;;;;;;2.05;1.83;;;;;;;;;;5073369;28;20028;-61
2021/07/28 11:54:05;;;;;;;2.00;1.80;;;;;;;;;;5053511;28;20017;-61
2021/07/28 11:56:30;;;;;;;5.35;1.98;;;;;;;;;;5056904;28;20053;-61
2021/07/28 11:58:55;;;;;;;2.30;1.75;;;;;;;;;;5053236;28;20372;-61
2021/07/28 12:01:21;;;;;;;2.47;1.77;;;;;;;;;;5053214;28;20039;-62
2021/07/28 12:03:51;;;;;;;2.03;1.83;;;;;;;;;;5051822;28;20244;-61
2021/07/28 12:06:29;;;;;;;2.53;1.80;;;;;;;;;;5073266;28;20016;-61
2021/07/28 12:09:11;;;;;;;2.58;1.92;;;;;;;;;;5072333;28;20412;-61
2021/07/28 12:11:52;;;;;;;2.63;2.05;;;;;;;;;;5072948;28;20025;-61
2021/07/28 12:14:25;;;;;;;1.90;1.80;;;;;;;;;;5069755;28;20048;-61
2021/07/28 12:16:51;;;;;;;2.45;1.90;;;;;;;;;;5073249;28;20027;-61
2021/07/28 12:19:26;;;;;;;2.53;2.22;;;;;;;;;;5073033;28;20020;-60
2021/07/28 12:21:55;;;;;;;3.50;2.42;;;;;;;;;;5072591;28;20071;-61
2021/07/28 12:24:31;;;;;;;2.30;2.15;;;;;;;;;;5049861;28;20199;-60
2021/07/28 12:27:16;;;;;;;2.78;2.40;;;;;;;;;;5053016;28;20013;-61
2021/07/28 12:29:47;;;;;;;;;;;;;;;;;;5070510;28;20039;-61
2021/07/28 12:32:13;;;;;;;3.17;2.70;;;;;;;;;;5072047;28;20014;-61
2021/07/28 12:34:39;;;;;;;2.58;2.40;;;;;;;;;;5049901;28;20475;-61
2021/07/28 12:37:20;;;;;;;2.75;2.05;;;;;;;;;;5052470;28;20040;-61
2021/07/28 12:39:46;;;;;;;3.00;2.47;;;;;;;;;;5052639;28;20019;-61
2021/07/28 12:42:11;;;;;;;2.67;2.47;;;;;;;;;;5052655;28;20087;-61
2021/07/28 12:44:36;;;;;;;2.43;2.23;;;;;;;;;;5049549;28;20609;-61
2021/07/28 12:47:01;;;;;;;3.58;2.20;;;;;;;;;;5070391;28;20265;-60
2021/07/28 12:49:26;;;;;;;2.75;2.40;;;;;;;;;;5072388;28;20027;-61
2021/07/28 12:51:52;;;;;;;3.20;2.83;;;;;;;;;;5072493;28;20028;-61
2021/07/28 12:54:17;;;;;;;3.75;2.97;;;;;;;;;;5069146;28;20259;-61
2021/07/28 12:56:42;;;;;;;3.00;2.80;;;;;;;;;;5071711;28;20049;-60
2021/07/28 12:59:07;;;;;;;2.93;2.70;;;;;;;;;;5072143;28;20082;-61
2021/07/28 13:01:33;;;;;;;2.38;2.22;;;;;;;;;;5071206;28;20348;-61
2021/07/28 13:03:59;;;;;;;3.83;2.40;;;;;;;;;;5058615;28;20016;-61
2021/07/28 13:06:24;;;;;;;3.00;2.70;;;;;;;;;;5072115;28;20379;-61
2021/07/28 13:08:50;;;;;;;2.97;2.72;;;;;;;;;;5072155;28;20542;-61
2021/07/28 13:11:15;;;;;;;2.70;2.50;;;;;;;;;;5071861;28;20100;-61
2021/07/28 13:13:40;;;;;;;4.87;2.83;;;;;;;;;;5068823;28;20075;-61
2021/07/28 13:16:05;;;;;;;3.88;2.72;;;;;;;;;;5055456;28;20271;-61
2021/07/28 13:18:31;;;;;;;3.15;2.92;;;;;;;;;;5050715;28;20387;-61
2021/07/28 13:20:56;;;;;;;2.83;2.63;;;;;;;;;;5051655;28;20023;-61
2021/07/28 13:23:22;;;;;;;3.33;2.90;;;;;;;;;;5049600;28;20102;-61
2021/07/28 13:25:47;;;;;;;3.78;3.13;;;;;;;;;;5063915;28;20062;-61
2021/07/28 13:28:13;;;;;;;3.47;3.00;;;;;;;;;;5071386;28;20024;-61
2021/07/28 13:30:38;;;;;;;4.00;3.00;;;;;;;;;;5068877;28;20043;-61
2021/07/28 13:33:03;;;;;;;3.03;2.72;;;;;;;;;;5071436;28;20081;-61
2021/07/28 13:35:28;;;;;;;3.83;3.38;;;;;;;;;;5069903;28;20028;-61
2021/07/28 13:37:54;;;;;;;4.05;3.72;;;;;;;;;;5070436;28;20020;-61
2021/07/28 13:40:19;;;;;;;4.75;3.80;;;;;;;;;;5071285;28;20028;-61
2021/07/28 13:42:45;;;;;;;3.60;3.30;;;;;;;;;;5069918;28;20013;-61
2021/07/28 13:45:12;;;;;;;4.15;3.40;;;;;;;;;;5066195;28;20024;-61
2021/07/28 13:47:39;;;;;;;4.22;3.90;;;;;;;;;;5066218;28;20419;-61
2021/07/28 13:50:05;;;;;;;3.58;3.28;;;;;;;;;;5071250;28;20117;-60
2021/07/28 13:52:31;;;;;;;3.95;3.55;;;;;;;;;;5071469;28;20107;-61
2021/07/28 13:54:56;;;;;;;3.95;3.65;;;;;;;;;;5068601;28;20032;-60
2021/07/28 13:57:22;;;;;;;4.47;3.27;;;;;;;;;;5070402;28;20053;-61
2021/07/28 13:59:47;;;;;;;4.15;3.17;;;;;;;;;;5071517;28;20328;-61
2021/07/28 14:02:13;;;;;;;3.70;3.13;;;;;;;;;;5053021;28;20025;-61
2021/07/28 14:04:41;;;;;;;4.43;2.88;;;;;;;;;;5057479;28;20044;-60
2021/07/28 14:07:06;;;;;;;3.72;3.42;;;;;;;;;;5071256;28;20012;-60
2021/07/28 14:09:32;;;;;;;3.75;3.45;;;;;;;;;;5071261;28;20024;-60
2021/07/28 14:11:57;;;;;;;3.88;3.35;;;;;;;;;;5072365;28;20021;-60
2021/07/28 14:14:23;;;;;;;3.70;2.78;;;;;;;;;;5072161;28;20024;-60
2021/07/28 14:16:48;;;;;;;3.20;2.95;;;;;;;;;;5057927;28;20032;-62
2021/07/28 14:19:17;;;;;;;3.40;3.10;;;;;;;;;;5054992;28;20475;-62
2021/07/28 14:21:43;;;;;;;3.15;2.85;;;;;;;;;;5073719;28;20095;-62
2021/07/28 14:24:08;;;;;;;2.92;2.72;;;;;;;;;;5060798;28;20499;-62
2021/07/28 14:26:34;;;;;;;3.60;3.30;;;;;;;;;;5060196;28;20052;-62
2021/07/28 14:28:59;;;;;;;3.25;2.95;;;;;;;;;;5054687;28;20115;-61
2021/07/28 14:31:24;;;;;;;3.10;2.90;;;;;;;;;;5072143;28;20115;-61
2021/07/28 14:33:49;;;;;;;3.10;2.90;;;;;;;;;;5071853;28;20077;-61
2021/07/28 14:36:14;;;;;;;2.90;2.70;;;;;;;;;;5075027;28;20259;-61